Time;durP1;ratioP1;P1;durP2;ratioP2;P2;SDS_P1;SDS_P2;PMS_P1;PMS_P2;Temp;Humidity;BMP_temperature;BMP_pressure;BME280_temperature;BME280_humidity;BME280_pressure;Samples;Min_cycle;Max_cycle;Signal;HPM_P1;HPM_P2
2021/03/13 00:00:56;;;;;;;;;;;;;;;20.06;36.18;99018.09;3087948;28;114111;-60
2021/03/13 00:02:27;;;;;;;;;;;;;;;20.07;36.04;99014.94;3109536;27;113879;-60
2021/03/13 00:03:58;;;;;;;;;;;;;;;20.06;35.93;99007.72;3094043;27;113936;-60
2021/03/13 00:05:32;;;;;;;;;;;;;;;20.04;36.10;98998.81;3109289;27;114089;-60
2021/03/13 00:07:04;;;;;;;;;;;;;;;20.06;36.06;98990.06;3085246;28;113889;-60
2021/03/13 00:08:37;;;;;;;;;;;;;;;20.03;36.02;98983.19;3081300;28;113976;-60
2021/03/13 00:10:08;;;;;;;;;;;;;;;20.03;36.08;98987.97;3086683;28;113902;-60
2021/03/13 00:11:40;;;;;;;;;;;;;;;20.02;36.21;98978.75;3090232;28;114164;-60
2021/03/13 00:13:11;;;;;;;;;;;;;;;20.01;36.14;98967.88;3118488;27;115204;-60
2021/03/13 00:14:42;;;;;;;;;;;;;;;19.99;36.11;98957.81;3098141;28;115020;-60
2021/03/13 00:16:13;;;;;;;;;;;;;;;19.99;36.19;98946.63;3101161;28;116444;-60
2021/03/13 00:17:46;;;;;;;;;;;;;;;19.98;36.36;98947.00;3081486;28;115528;-60
2021/03/13 00:19:17;;;;;;;;;;;;;;;19.97;36.27;98936.94;3091107;28;115110;-60
2021/03/13 00:20:48;;;;;;;;;;;;;;;19.95;36.41;98928.88;3091118;28;115257;-60
2021/03/13 00:22:19;;;;;;;;;;;;;;;19.95;36.29;98917.66;3088387;28;115494;-60
2021/03/13 00:23:53;;;;;;;;;;;;;;;19.91;36.59;98927.13;3088597;28;115460;-59
2021/03/13 00:25:25;;;;;;;;;;;;;;;19.88;36.54;98911.84;3096889;28;113952;-60
2021/03/13 00:26:56;;;;;;;;;;;;;;;19.84;36.64;98891.31;3089993;28;115721;-60
2021/03/13 00:28:27;;;;;;;;;;;;;;;19.84;36.60;98887.69;3090225;28;114986;-59
2021/03/13 00:29:59;;;;;;;;;;;;;;;19.81;36.75;98882.78;3091123;28;115072;-61
2021/03/13 00:31:30;;;;;;;;;;;;;;;19.84;36.83;98874.50;3101882;28;115126;-59
2021/03/13 00:33:03;;;;;;;;;;;;;;;19.85;36.86;98870.50;3111954;27;115915;-60
2021/03/13 00:34:34;;;;;;;;;;;;;;;19.85;36.97;98864.09;3099072;27;115697;-60
2021/03/13 00:36:06;;;;;;;;;;;;;;;19.83;36.95;98860.84;3093875;28;115571;-60
2021/03/13 00:37:37;;;;;;;;;;;;;;;19.80;36.97;98859.56;3097202;28;116473;-60
2021/03/13 00:39:09;;;;;;;;;;;;;;;19.78;37.06;98850.69;3088441;28;115934;-59
2021/03/13 00:40:41;;;;;;;;;;;;;;;19.75;36.95;98842.19;3104028;27;114625;-60
2021/03/13 00:42:12;;;;;;;;;;;;;;;19.72;37.28;98843.69;3090053;28;114674;-60
2021/03/13 00:43:44;;;;;;;;;;;;;;;19.70;37.31;98837.63;3082553;28;116473;-60
2021/03/13 00:45:17;;;;;;;;;;;;;;;19.68;37.48;98841.94;3088937;28;115865;-60
2021/03/13 00:46:48;;;;;;;;;;;;;;;19.66;37.30;98847.94;3091578;28;114692;-60
2021/03/13 00:48:19;;;;;;;;;;;;;;;19.61;37.43;98834.16;3084389;28;116611;-59
2021/03/13 00:49:51;;;;;;;;;;;;;;;19.60;37.63;98838.13;3091475;28;115732;-60
2021/03/13 00:51:23;;;;;;;;;;;;;;;19.57;37.42;98840.81;3090074;28;115706;-60
2021/03/13 00:52:54;;;;;;;;;;;;;;;19.56;37.61;98833.59;3089657;28;116002;-60
2021/03/13 00:54:25;;;;;;;;;;;;;;;19.53;37.57;98843.53;3092927;28;115039;-59
2021/03/13 00:55:56;;;;;;;;;;;;;;;19.51;37.84;98840.25;3102016;28;115761;-59
2021/03/13 00:57:27;;;;;;;;;;;;;;;19.49;37.74;98831.38;3087800;28;114127;-60
2021/03/13 00:58:58;;;;;;;;;;;;;;;19.46;37.91;98820.88;3089647;28;113858;-60
2021/03/13 01:00:30;;;;;;;;;;;;;;;19.47;38.11;98814.94;3082671;28;113724;-60
2021/03/13 01:02:01;;;;;;;;;;;;;;;19.44;37.72;98818.41;3081073;28;113960;-59
2021/03/13 01:03:33;;;;;;;;;;;;;;;19.42;38.02;98817.94;3095913;28;113858;-59
2021/03/13 01:05:06;;;;;;;;;;;;;;;19.38;37.88;98807.81;3093319;28;113842;-60
2021/03/13 01:06:37;;;;;;;;;;;;;;;19.37;38.19;98820.16;3110086;27;113774;-60
2021/03/13 01:08:08;;;;;;;;;;;;;;;19.36;38.17;98812.91;3089895;28;114177;-60
2021/03/13 01:09:51;;;;;;;;;;;;;;;19.35;38.04;98802.91;3108239;27;113984;-60
2021/03/13 01:11:23;;;;;;;;;;;;;;;19.33;38.33;98803.25;3104563;27;113700;-59
2021/03/13 01:12:54;;;;;;;;;;;;;;;19.32;38.39;98798.00;3086455;28;113776;-60
2021/03/13 01:14:25;;;;;;;;;;;;;;;19.32;38.32;98798.00;3109711;27;113962;-60
2021/03/13 01:15:57;;;;;;;;;;;;;;;19.28;38.40;98799.88;3098511;28;113789;-60
2021/03/13 01:17:28;;;;;;;;;;;;;;;19.29;38.64;98795.91;3093815;28;113858;-60
2021/03/13 01:18:59;;;;;;;;;;;;;;;19.27;38.58;98782.25;3089600;28;115545;-59
2021/03/13 01:20:30;;;;;;;;;;;;;;;19.27;38.41;98775.84;3087497;28;115061;-60
2021/03/13 01:22:02;;;;;;;;;;;;;;;19.27;38.54;98767.44;3087028;28;115093;-60
2021/03/13 01:23:33;;;;;;;;;;;;;;;19.26;38.40;98774.22;3110168;27;115134;-60
2021/03/13 01:25:04;;;;;;;;;;;;;;;19.25;38.41;98765.00;3093075;28;115119;-60
2021/03/13 01:26:36;;;;;;;;;;;;;;;19.23;38.63;98774.91;3087012;28;113890;-60
2021/03/13 01:28:07;;;;;;;;;;;;;;;19.21;38.88;98777.28;3088188;28;114120;-60
2021/03/13 01:29:43;;;;;;;;;;;;;;;19.19;38.75;98769.22;3086339;28;114001;-60
2021/03/13 01:31:15;;;;;;;;;;;;;;;19.13;39.02;98773.41;3092081;28;115029;-60
2021/03/13 01:32:47;;;;;;;;;;;;;;;19.13;39.00;98804.19;3115020;27;115221;-60
2021/03/13 01:34:18;;;;;;;;;;;;;;;19.10;38.90;98794.53;3100122;28;115007;-60
2021/03/13 01:35:49;;;;;;;;;;;;;;;19.05;39.13;98828.34;3110586;27;115159;-60
2021/03/13 01:37:21;;;;;;;;;;;;;;;19.04;39.00;98801.53;3090348;28;114995;-60
2021/03/13 01:38:52;;;;;;;;;;;;;;;19.00;38.90;98809.00;3091568;28;115017;-60
2021/03/13 01:40:23;;;;;;;;;;;;;;;18.97;38.85;98790.13;3082095;28;115684;-59
2021/03/13 01:41:54;;;;;;;;;;;;;;;18.95;38.75;98783.22;3083155;28;115606;-59
2021/03/13 01:43:25;;;;;;;;;;;;;;;18.92;38.73;98762.38;3086647;28;115733;-60
2021/03/13 01:44:57;;;;;;;;;;;;;;;18.95;38.64;98747.66;3087305;28;115961;-59
2021/03/13 01:46:28;;;;;;;;;;;;;;;18.94;38.59;98770.44;3092355;28;115786;-60
2021/03/13 01:47:59;;;;;;;;;;;;;;;18.93;38.53;98777.19;3087017;28;115784;-59
2021/03/13 01:49:32;;;;;;;;;;;;;;;18.91;38.53;98755.13;3089065;28;117781;-60
2021/03/13 01:51:03;;;;;;;;;;;;;;;18.94;38.49;98711.66;3113480;27;115953;-60
2021/03/13 01:52:35;;;;;;;;;;;;;;;18.91;38.43;98693.56;3090426;28;115738;-60
2021/03/13 01:54:06;;;;;;;;;;;;;;;18.91;38.58;98723.53;3092922;28;117295;-60
2021/03/13 01:55:37;;;;;;;;;;;;;;;18.90;38.39;98728.31;3087258;28;117681;-60
2021/03/13 01:57:11;;;;;;;;;;;;;;;18.89;38.45;98715.50;3089800;28;114791;-60
2021/03/13 01:58:43;;;;;;;;;;;;;;;18.88;38.29;98724.25;3089917;28;115780;-59
2021/03/13 02:00:24;;;;;;;;;;;;;;;18.85;38.42;98713.78;3090435;28;115502;-59
2021/03/13 02:01:55;;;;;;;;;;;;;;;18.88;38.52;98718.66;3115583;27;114175;-60
2021/03/13 02:03:27;;;;;;;;;;;;;;;18.84;38.32;98724.16;3095131;28;113831;-60
2021/03/13 02:04:58;;;;;;;;;;;;;;;18.83;38.40;98744.06;3086690;28;114005;-60
2021/03/13 02:06:31;;;;;;;;;;;;;;;18.85;38.38;98728.56;3110982;27;114158;-60
2021/03/13 02:08:10;;;;;;;;;;;;;;;18.90;38.38;98724.69;3102076;27;113953;-60
2021/03/13 02:09:51;;;;;;;;;;;;;;;18.95;38.22;98730.88;3083097;28;113912;-60
2021/03/13 02:11:31;;;;;;;;;;;;;;;19.03;37.80;98718.72;3083809;28;114272;-60
2021/03/13 02:13:08;;;;;;;;;;;;;;;19.06;37.71;98729.25;3114674;27;114160;-60
2021/03/13 02:14:49;;;;;;;;;;;;;;;19.11;37.52;98719.78;3072128;28;113800;-60
2021/03/13 02:16:25;;;;;;;;;;;;;;;19.12;37.37;98729.81;3105582;27;113854;-60
2021/03/13 02:18:01;;;;;;;;;;;;;;;19.16;37.43;98710.31;3088283;28;114043;-60
2021/03/13 02:19:43;;;;;;;;;;;;;;;19.17;37.33;98706.38;3082324;28;113988;-60
2021/03/13 02:21:19;;;;;;;;;;;;;;;19.17;37.07;98693.16;3108145;27;114029;-60
2021/03/13 02:22:52;;;;;;;;;;;;;;;19.20;36.94;98686.88;3100632;27;114480;-60
2021/03/13 02:24:27;;;;;;;;;;;;;;;19.21;37.06;98687.69;3090623;28;114025;-60
2021/03/13 02:26:05;;;;;;;;;;;;;;;19.22;36.75;98694.91;3087088;28;114123;-60
2021/03/13 02:27:45;;;;;;;;;;;;;;;19.21;36.74;98690.50;3086773;28;115534;-60
2021/03/13 02:29:27;;;;;;;;;;;;;;;19.23;36.73;98688.94;3085011;28;113979;-59
2021/03/13 02:31:00;;;;;;;;;;;;;;;19.24;36.66;98689.78;3081552;28;115012;-60
2021/03/13 02:32:41;;;;;;;;;;;;;;;19.26;36.59;98684.66;3099413;28;115101;-60
2021/03/13 02:34:19;;;;;;;;;;;;;;;19.25;36.55;98683.81;3088566;28;115063;-60
2021/03/13 02:35:56;;;;;;;;;;;;;;;19.27;36.53;98678.66;3101692;28;115158;-60
2021/03/13 02:37:30;;;;;;;;;;;;;;;19.27;36.58;98695.47;3092807;28;115175;-59
2021/03/13 02:39:05;;;;;;;;;;;;;;;19.29;36.56;98692.31;3107850;27;114162;-60
2021/03/13 02:40:38;;;;;;;;;;;;;;;19.31;36.40;98689.97;3093501;28;115005;-60
2021/03/13 02:42:09;;;;;;;;;;;;;;;19.32;36.55;98689.63;3105431;27;115118;-59
2021/03/13 02:43:43;;;;;;;;;;;;;;;19.34;36.48;98678.06;3091048;28;114135;-60
2021/03/13 02:45:16;;;;;;;;;;;;;;;19.36;36.33;98698.94;3097421;28;114525;-60
2021/03/13 02:46:49;;;;;;;;;;;;;;;19.38;36.57;98688.22;3113785;27;114071;-60
2021/03/13 02:48:23;;;;;;;;;;;;;;;19.42;36.40;98693.91;3093134;28;115860;-60
2021/03/13 02:49:54;;;;;;;;;;;;;;;19.46;36.28;98704.06;3111058;27;115835;-61
2021/03/13 02:51:27;;;;;;;;;;;;;;;19.49;36.17;98682.94;3089671;28;116515;-60
2021/03/13 02:53:00;;;;;;;;;;;;;;;19.51;36.15;98695.41;3086340;28;115959;-59
2021/03/13 02:54:33;;;;;;;;;;;;;;;19.54;36.16;98689.09;3085439;28;115854;-59
2021/03/13 02:56:06;;;;;;;;;;;;;;;19.58;36.14;98710.81;3088323;28;115069;-59
2021/03/13 02:57:38;;;;;;;;;;;;;;;19.59;35.81;98726.41;3090667;28;114644;-60
2021/03/13 02:59:11;;;;;;;;;;;;;;;19.60;35.64;98709.28;3096436;28;115819;-60
2021/03/13 03:00:42;;;;;;;;;;;;;;;19.64;35.95;98717.78;3086548;28;115796;-60
2021/03/13 03:02:15;;;;;;;;;;;;;;;19.69;37.10;98728.72;3094804;28;115732;-59
2021/03/13 03:03:49;;;;;;;;;;;;;;;19.70;36.74;98724.75;3088369;28;115879;-59
2021/03/13 03:05:21;;;;;;;;;;;;;;;19.77;37.61;98708.94;3096650;28;115689;-60
2021/03/13 03:06:55;;;;;;;;;;;;;;;19.78;37.30;98712.56;3110209;27;115927;-59
2021/03/13 03:08:27;;;;;;;;;;;;;;;19.82;37.93;98728.31;3097526;28;114432;-59
2021/03/13 03:09:59;;;;;;;;;;;;;;;19.19;33.53;98735.63;3087450;28;114140;-60
2021/03/13 03:11:31;;;;;;;;;;;;;;;19.10;35.57;98734.94;3087983;28;114041;-60
2021/03/13 03:13:05;;;;;;;;;;;;;;;19.26;35.53;98713.44;3084766;28;113670;-59
2021/03/13 03:14:39;;;;;;;;;;;;;;;19.39;35.81;98728.22;3085556;28;113849;-59
2021/03/13 03:16:11;;;;;;;;;;;;;;;19.45;35.76;98712.81;3081773;28;113990;-59
2021/03/13 03:17:43;;;;;;;;;;;;;;;19.48;35.66;98714.94;3096120;28;114016;-59
2021/03/13 03:19:16;;;;;;;;;;;;;;;19.52;35.63;98711.06;3084129;28;113819;-59
2021/03/13 03:20:48;;;;;;;;;;;;;;;19.55;35.66;98717.91;3089128;28;113781;-59
2021/03/13 03:22:19;;;;;;;;;;;;;;;19.57;35.67;98718.41;3093746;28;115787;-59
2021/03/13 03:23:51;;;;;;;;;;;;;;;19.58;35.69;98717.19;3090112;28;113741;-59
2021/03/13 03:25:22;;;;;;;;;;;;;;;19.60;35.52;98716.84;3110219;27;113931;-59
2021/03/13 03:26:53;;;;;;;;;;;;;;;19.60;35.50;98723.28;3093319;28;113925;-59
2021/03/13 03:28:25;;;;;;;;;;;;;;;19.61;35.66;98707.28;3085482;28;113896;-59
2021/03/13 03:29:57;;;;;;;;;;;;;;;19.63;35.65;98716.13;3111246;27;114076;-59
2021/03/13 03:31:31;;;;;;;;;;;;;;;19.64;35.78;98704.56;3097590;27;114998;-59
2021/03/13 03:33:03;;;;;;;;;;;;;;;19.65;35.60;98717.41;3094796;28;115022;-59
2021/03/13 03:34:34;;;;;;;;;;;;;;;19.66;35.57;98719.06;3103783;28;114403;-59
2021/03/13 03:36:06;;;;;;;;;;;;;;;19.65;35.69;98716.59;3106395;27;115030;-59
2021/03/13 03:37:39;;;;;;;;;;;;;;;19.70;35.63;98713.53;3094001;28;114434;-58
2021/03/13 03:39:11;;;;;;;;;;;;;;;19.74;36.38;98715.28;3089049;28;115614;-60
2021/03/13 03:40:44;;;;;;;;;;;;;;;19.71;35.83;98707.59;3087662;28;115650;-60
2021/03/13 03:42:15;;;;;;;;;;;;;;;19.71;35.82;98718.00;3085466;28;115143;-60
2021/03/13 03:43:50;;;;;;;;;;;;;;;19.71;35.66;98713.19;3100406;27;115140;-60
2021/03/13 03:45:22;;;;;;;;;;;;;;;19.71;36.22;98732.00;3090365;27;115112;-59
2021/03/13 03:47:00;;;;;;;;;;;;;;;19.69;36.06;98698.72;3104951;27;115028;-60
2021/03/13 03:48:34;;;;;;;;;;;;;;;19.69;36.38;98712.72;3092280;27;115233;-60
2021/03/13 03:50:06;;;;;;;;;;;;;;;19.69;36.21;98757.56;3110813;28;114961;-60
2021/03/13 03:51:38;;;;;;;;;;;;;;;19.67;36.17;98768.28;3090524;28;115249;-60
2021/03/13 03:53:13;;;;;;;;;;;;;;;19.68;35.97;98750.31;3086425;28;115740;-59
2021/03/13 03:54:45;;;;;;;;;;;;;;;19.67;36.51;98740.28;3080556;28;115699;-59
2021/03/13 03:56:19;;;;;;;;;;;;;;;19.67;36.25;98745.09;3114461;27;115664;-60
2021/03/13 03:57:51;;;;;;;;;;;;;;;19.66;36.30;98747.06;3096750;27;115039;-60
2021/03/13 03:59:22;;;;;;;;;;;;;;;19.64;36.13;98743.78;3108660;27;115946;-60
2021/03/13 04:00:53;;;;;;;;;;;;;;;19.64;36.23;98743.78;3094343;28;116480;-59
2021/03/13 04:02:25;;;;;;;;;;;;;;;19.63;36.00;98730.13;3093094;28;115839;-59
2021/03/13 04:03:59;;;;;;;;;;;;;;;19.62;36.30;98737.75;3080930;28;115990;-60
2021/03/13 04:05:32;;;;;;;;;;;;;;;19.61;36.40;98754.91;3107706;27;115882;-60
2021/03/13 04:07:04;;;;;;;;;;;;;;;19.59;35.86;98746.84;3102038;27;116302;-60
2021/03/13 04:08:37;;;;;;;;;;;;;;;19.60;36.01;98751.28;3097820;28;115721;-59
2021/03/13 04:10:09;;;;;;;;;;;;;;;19.58;36.34;98744.44;3080841;28;116720;-60
2021/03/13 04:11:41;;;;;;;;;;;;;;;19.58;36.21;98747.22;3109779;27;115874;-60
2021/03/13 04:13:13;;;;;;;;;;;;;;;19.56;36.17;98755.97;3087228;27;115870;-60
2021/03/13 04:14:46;;;;;;;;;;;;;;;19.56;35.88;98763.56;3089219;28;117113;-60
2021/03/13 04:16:17;;;;;;;;;;;;;;;19.53;36.41;98765.88;3109167;27;113992;-59
2021/03/13 04:17:49;;;;;;;;;;;;;;;19.54;36.29;98758.31;3092990;28;113893;-60
2021/03/13 04:19:22;;;;;;;;;;;;;;;19.52;36.35;98755.06;3085532;28;113823;-60
2021/03/13 04:20:53;;;;;;;;;;;;;;;19.52;36.24;98763.47;3085725;28;113702;-59
2021/03/13 04:22:26;;;;;;;;;;;;;;;19.52;36.09;98766.25;3087502;28;114039;-59
2021/03/13 04:23:58;;;;;;;;;;;;;;;19.51;36.19;98757.03;3107141;27;113665;-60
2021/03/13 04:25:31;;;;;;;;;;;;;;;19.50;36.10;98763.81;3094963;27;113725;-59
2021/03/13 04:27:02;;;;;;;;;;;;;;;19.50;36.20;98765.78;3087660;28;113799;-59
2021/03/13 04:28:34;;;;;;;;;;;;;;;19.47;36.17;98756.13;3085000;28;113969;-59
2021/03/13 04:30:06;;;;;;;;;;;;;;;19.47;36.22;98758.09;3114882;27;115591;-60
2021/03/13 04:31:38;;;;;;;;;;;;;;;19.47;36.19;98766.50;3105175;27;113822;-59
2021/03/13 04:33:11;;;;;;;;;;;;;;;19.45;35.93;98764.03;3092666;28;113809;-60
2021/03/13 04:34:45;;;;;;;;;;;;;;;19.45;36.47;98772.44;3112003;27;113874;-59
2021/03/13 04:36:17;;;;;;;;;;;;;;;19.44;36.26;98770.81;3104730;27;113708;-60
2021/03/13 04:37:50;;;;;;;;;;;;;;;19.43;36.03;98772.00;3109043;27;115169;-60
2021/03/13 04:39:21;;;;;;;;;;;;;;;19.43;35.96;98777.59;3100868;28;114012;-59
2021/03/13 04:40:55;;;;;;;;;;;;;;;19.43;36.15;98771.16;3092217;28;115403;-59
2021/03/13 04:42:27;;;;;;;;;;;;;;;19.40;36.42;98783.03;3092824;28;115079;-59
2021/03/13 04:43:58;;;;;;;;;;;;;;;19.37;35.98;98764.16;3081026;28;115688;-59
2021/03/13 04:45:30;;;;;;;;;;;;;;;19.34;36.41;98781.69;3115231;27;115292;-59
2021/03/13 04:47:02;;;;;;;;;;;;;;;19.33;36.09;98752.84;3098513;27;115191;-59
2021/03/13 04:48:34;;;;;;;;;;;;;;;19.32;36.26;98768.03;3084912;28;114025;-60
2021/03/13 04:50:05;;;;;;;;;;;;;;;19.30;36.21;98761.16;3085217;28;115103;-60
2021/03/13 04:51:39;;;;;;;;;;;;;;;19.33;36.00;98766.84;3085808;28;114605;-59
2021/03/13 04:53:10;;;;;;;;;;;;;;;19.29;36.18;98757.53;3086101;28;114491;-60
2021/03/13 04:54:41;;;;;;;;;;;;;;;19.28;36.22;98767.09;3096982;28;115104;-59
2021/03/13 04:56:14;;;;;;;;;;;;;;;19.25;36.45;98758.59;3080469;28;115828;-59
2021/03/13 04:57:45;;;;;;;;;;;;;;;19.23;36.54;98766.53;3085968;28;115272;-59
2021/03/13 04:59:17;;;;;;;;;;;;;;;19.25;36.31;98775.41;3083046;28;115859;-60
2021/03/13 05:00:49;;;;;;;;;;;;;;;19.20;36.29;98764.44;3108533;27;115816;-59
2021/03/13 05:02:36;;;;;;;;;;;;;;;19.19;36.40;98771.19;3086084;28;114761;-59
2021/03/13 05:04:07;;;;;;;;;;;;;;;19.18;36.50;98772.34;3110155;28;114452;-60
2021/03/13 05:05:38;;;;;;;;;;;;;;;19.16;36.28;98764.34;3086343;28;116352;-59
2021/03/13 05:07:10;;;;;;;;;;;;;;;19.17;36.42;98765.16;3105663;27;115698;-60
2021/03/13 05:08:41;;;;;;;;;;;;;;;19.16;36.70;98741.13;3090042;28;114632;-59
2021/03/13 05:10:13;;;;;;;;;;;;;;;19.12;36.30;98749.41;3100044;28;115661;-60
2021/03/13 05:11:45;;;;;;;;;;;;;;;19.11;36.22;98750.56;3093509;28;115714;-59
2021/03/13 05:13:16;;;;;;;;;;;;;;;19.13;36.63;98753.00;3107844;27;115812;-59
2021/03/13 05:14:49;;;;;;;;;;;;;;;19.08;36.36;98754.88;3094798;28;116231;-59
2021/03/13 05:16:20;;;;;;;;;;;;;;;19.06;36.53;98757.22;3110486;27;115908;-59
2021/03/13 05:17:51;;;;;;;;;;;;;;;19.03;36.34;98757.91;3083059;28;115762;-59
2021/03/13 05:19:23;;;;;;;;;;;;;;;18.99;36.61;98757.00;3081241;28;115807;-59
2021/03/13 05:20:54;;;;;;;;;;;;;;;18.97;36.59;98756.53;3085855;28;113842;-60
2021/03/13 05:22:26;;;;;;;;;;;;;;;18.95;36.60;98742.06;3085838;28;113899;-60
2021/03/13 05:23:58;;;;;;;;;;;;;;;18.93;36.58;98747.22;3083174;28;113764;-59
2021/03/13 05:25:30;;;;;;;;;;;;;;;18.94;36.39;98753.63;3084564;28;114058;-59
2021/03/13 05:27:02;;;;;;;;;;;;;;;18.90;36.32;98753.50;3085904;28;113746;-60
2021/03/13 05:28:33;;;;;;;;;;;;;;;18.90;36.20;98750.69;3081933;28;114159;-60
2021/03/13 05:30:06;;;;;;;;;;;;;;;18.86;36.58;98737.75;3090880;28;114061;-60
2021/03/13 05:31:38;;;;;;;;;;;;;;;18.85;36.08;98761.34;3109291;27;113848;-60
2021/03/13 05:33:11;;;;;;;;;;;;;;;18.83;36.20;98769.25;3085822;28;113746;-59
2021/03/13 05:34:43;;;;;;;;;;;;;;;18.81;36.23;98752.81;3078572;28;113879;-60
2021/03/13 05:36:14;;;;;;;;;;;;;;;18.78;36.18;98749.91;3098719;28;114104;-60
2021/03/13 05:37:45;;;;;;;;;;;;;;;18.80;36.44;98758.78;3089121;28;114132;-60
2021/03/13 05:39:17;;;;;;;;;;;;;;;18.75;36.26;98757.03;3101031;28;113795;-60
2021/03/13 05:40:48;;;;;;;;;;;;;;;18.75;36.50;98768.22;3089377;28;113943;-60
2021/03/13 05:42:21;;;;;;;;;;;;;;;18.74;36.24;98765.75;3091038;28;113841;-60
2021/03/13 05:43:53;;;;;;;;;;;;;;;18.74;36.37;98760.16;3086292;28;114067;-60
2021/03/13 05:47:01;;;;;;;;;;;;;;;18.72;36.33;98770.88;3111258;27;114393;-60
2021/03/13 05:48:34;;;;;;;;;;;;;;;18.69;36.60;98769.59;3093065;28;115081;-60
2021/03/13 05:50:07;;;;;;;;;;;;;;;18.70;36.69;98793.63;3089417;28;115080;-60
2021/03/13 05:51:42;;;;;;;;;;;;;;;18.65;36.84;98786.28;3087573;28;115114;-60
2021/03/13 05:53:13;;;;;;;;;;;;;;;18.67;36.51;98781.13;3076768;28;114021;-60
2021/03/13 05:54:45;;;;;;;;;;;;;;;18.67;36.58;98789.50;3112359;27;115241;-59
2021/03/13 05:56:16;;;;;;;;;;;;;;;18.67;36.75;98778.31;3087801;27;114377;-60
2021/03/13 05:57:50;;;;;;;;;;;;;;;18.65;36.70;98774.25;3087327;28;115118;-59
2021/03/13 05:59:21;;;;;;;;;;;;;;;18.61;36.72;98781.72;3086240;28;115597;-59
2021/03/13 06:00:52;;;;;;;;;;;;;;;18.61;36.85;98773.31;3087427;28;115099;-59
2021/03/13 06:02:24;;;;;;;;;;;;;;;18.61;36.67;98781.72;3086583;28;114693;-59
2021/03/13 06:03:56;;;;;;;;;;;;;;;18.58;37.12;98788.00;3102086;28;114161;-59
2021/03/13 06:05:27;;;;;;;;;;;;;;;18.56;36.80;98777.16;3085935;28;115855;-60
2021/03/13 06:07:00;;;;;;;;;;;;;;;18.55;36.67;98785.91;3104533;27;114664;-60
2021/03/13 06:08:32;;;;;;;;;;;;;;;18.57;36.81;98786.38;3090684;28;115849;-60
2021/03/13 06:10:04;;;;;;;;;;;;;;;18.56;36.89;98793.13;3092310;28;115711;-60
2021/03/13 06:11:36;;;;;;;;;;;;;;;18.56;36.77;98795.94;3111093;27;116423;-60
2021/03/13 06:13:07;;;;;;;;;;;;;;;18.53;36.67;98789.03;3093102;28;115609;-60
2021/03/13 06:14:38;;;;;;;;;;;;;;;18.52;36.79;98793.00;3086059;28;115657;-60
2021/03/13 06:16:11;;;;;;;;;;;;;;;18.52;36.99;98808.94;3097609;28;115999;-60
2021/03/13 06:17:46;;;;;;;;;;;;;;;18.50;37.06;98803.69;3089675;28;115933;-60
2021/03/13 06:19:18;;;;;;;;;;;;;;;18.49;36.70;98807.63;3089695;28;116040;-60
2021/03/13 06:20:50;;;;;;;;;;;;;;;18.51;36.84;98810.09;3096579;28;115759;-60
2021/03/13 06:22:24;;;;;;;;;;;;;;;18.49;36.83;98812.41;3087196;28;114811;-60
2021/03/13 06:23:59;;;;;;;;;;;;;;;18.48;36.95;98810.81;3092028;28;115782;-60
2021/03/13 06:25:30;;;;;;;;;;;;;;;18.48;36.96;98808.00;3102278;28;115882;-60
2021/03/13 06:27:02;;;;;;;;;;;;;;;18.43;37.06;98811.03;3077042;28;113715;-60
2021/03/13 06:28:33;;;;;;;;;;;;;;;18.43;36.89;98800.66;3094057;28;113772;-60
2021/03/13 06:30:05;;;;;;;;;;;;;;;18.44;36.91;98812.66;3092274;28;113633;-60
2021/03/13 06:31:36;;;;;;;;;;;;;;;18.45;37.04;98812.28;3087545;28;114033;-59
2021/03/13 06:33:11;;;;;;;;;;;;;;;18.42;37.22;98814.97;3087562;28;113750;-60
2021/03/13 06:34:43;;;;;;;;;;;;;;;18.43;37.02;98817.44;3096497;28;114090;-60
2021/03/13 06:36:19;;;;;;;;;;;;;;;18.43;36.94;98799.84;3083146;28;113874;-60
2021/03/13 06:37:53;;;;;;;;;;;;;;;18.40;37.01;98804.13;3110841;28;114004;-60
2021/03/13 06:39:36;;;;;;;;;;;;;;;18.38;37.23;98798.09;3088578;28;114326;-60
2021/03/13 06:41:10;;;;;;;;;;;;;;;18.40;37.08;98811.69;3085730;28;113904;-61
2021/03/13 06:42:41;;;;;;;;;;;;;;;18.40;37.03;98806.94;3110904;27;114031;-60
2021/03/13 06:44:15;;;;;;;;;;;;;;;18.45;37.35;98808.69;3102472;28;113784;-60
2021/03/13 06:45:49;;;;;;;;;;;;;;;18.47;37.41;98803.56;3098422;28;113707;-60
2021/03/13 06:47:24;;;;;;;;;;;;;;;18.51;37.13;98799.72;3097216;28;114072;-60
2021/03/13 06:48:57;;;;;;;;;;;;;;;18.54;37.34;98807.44;3094240;28;115183;-60
2021/03/13 06:50:29;;;;;;;;;;;;;;;18.55;37.25;98811.88;3104727;28;115133;-60
2021/03/13 06:52:01;;;;;;;;;;;;;;;18.58;37.25;98813.16;3086225;28;115110;-60
2021/03/13 06:53:32;;;;;;;;;;;;;;;18.58;37.65;98813.97;3108706;27;115101;-59
2021/03/13 06:55:04;;;;;;;;;;;;;;;18.61;37.66;98812.47;3085412;27;115668;-61
2021/03/13 06:56:38;;;;;;;;;;;;;;;18.64;37.54;98825.75;3086693;28;115184;-60
2021/03/13 06:58:11;;;;;;;;;;;;;;;18.67;37.49;98819.47;3086834;28;115049;-60
2021/03/13 06:59:49;;;;;;;;;;;;;;;18.70;37.37;98812.38;3106741;27;115079;-60
2021/03/13 07:01:24;;;;;;;;;;;;;;;18.74;37.69;98821.69;3092420;28;114025;-60
2021/03/13 07:02:59;;;;;;;;;;;;;;;18.78;37.62;98828.22;3086340;28;115240;-60
2021/03/13 07:04:31;;;;;;;;;;;;;;;18.81;37.67;98825.53;3085978;28;115199;-60
2021/03/13 07:06:14;;;;;;;;;;;;;;;18.84;38.11;98810.06;3086722;28;115198;-60
2021/03/13 07:07:45;;;;;;;;;;;;;;;18.88;37.85;98834.19;3084125;28;115112;-60
2021/03/13 07:09:37;;;;;;;;;;;;;;;18.93;38.04;98847.97;3110207;27;114766;-60
2021/03/13 07:11:08;;;;;;;;;;;;;;;18.99;38.09;98854.94;3086560;28;115216;-60
2021/03/13 07:12:41;;;;;;;;;;;;;;;19.03;38.16;98832.69;3084573;28;115873;-60
2021/03/13 07:14:25;;;;;;;;;;;;;;;19.07;38.19;98837.22;3109001;27;115806;-60
2021/03/13 07:16:16;;;;;;;;;;;;;;;19.13;38.18;98839.78;3087646;28;116065;-60
2021/03/13 07:17:50;;;;;;;;;;;;;;;19.17;37.78;98835.13;3096033;28;115630;-60
2021/03/13 07:19:21;;;;;;;;;;;;;;;19.21;37.70;98836.88;3094353;28;115825;-60
2021/03/13 07:20:53;;;;;;;;;;;;;;;19.26;37.73;98831.00;3101106;27;116403;-60
2021/03/13 07:22:24;;;;;;;;;;;;;;;19.32;38.06;98842.81;3095141;28;115813;-60
2021/03/13 07:23:59;;;;;;;;;;;;;;;19.36;37.81;98840.94;3097965;28;116520;-60
2021/03/13 07:25:31;;;;;;;;;;;;;;;19.39;37.60;98838.25;3090593;28;114772;-60
2021/03/13 07:27:04;;;;;;;;;;;;;;;19.44;37.58;98834.44;3088349;28;115791;-60
2021/03/13 07:28:40;;;;;;;;;;;;;;;19.47;37.55;98828.94;3108863;27;115667;-60
2021/03/13 07:30:12;;;;;;;;;;;;;;;19.53;37.40;98837.91;3092904;27;114637;-60
2021/03/13 07:31:47;;;;;;;;;;;;;;;19.57;37.18;98843.63;3088284;28;114652;-60
2021/03/13 07:33:21;;;;;;;;;;;;;;;19.61;37.36;98836.97;3089934;28;114885;-60
2021/03/13 07:34:57;;;;;;;;;;;;;;;19.65;37.20;98834.25;3086471;28;113905;-60
2021/03/13 07:36:28;;;;;;;;;;;;;;;19.69;36.89;98846.38;3087094;28;113761;-60
2021/03/13 07:38:02;;;;;;;;;;;;;;;19.73;37.02;98853.72;3087310;28;113734;-60
2021/03/13 07:39:34;;;;;;;;;;;;;;;19.77;36.96;98860.25;3097516;28;114549;-60
2021/03/13 07:41:09;;;;;;;;;;;;;;;19.80;36.88;98856.75;3119609;27;114052;-60
2021/03/13 07:42:40;;;;;;;;;;;;;;;19.84;36.63;98868.91;3081984;28;113906;-60
2021/03/13 07:44:14;;;;;;;;;;;;;;;19.88;36.70;98881.03;3087505;28;113713;-60
2021/03/13 07:45:46;;;;;;;;;;;;;;;19.92;36.55;98867.13;3085405;28;113814;-60
2021/03/13 07:47:18;;;;;;;;;;;;;;;19.96;36.68;98877.25;3105141;27;113833;-60
2021/03/13 07:48:51;;;;;;;;;;;;;;;20.01;36.53;98880.97;3100087;27;114295;-60
2021/03/13 07:50:23;;;;;;;;;;;;;;;20.04;36.52;98881.06;3083126;28;114105;-60
2021/03/13 07:51:54;;;;;;;;;;;;;;;20.09;36.57;98883.63;3091460;28;113870;-60
2021/03/13 07:53:26;;;;;;;;;;;;;;;20.12;36.36;98888.56;3088158;28;114061;-60
2021/03/13 07:54:57;;;;;;;;;;;;;;;20.15;36.57;98885.03;3088986;28;114034;-60
2021/03/13 07:56:31;;;;;;;;;;;;;;;20.18;36.74;98892.72;3106533;28;115046;-59
2021/03/13 07:58:05;;;;;;;;;;;;;;;20.22;36.27;98893.63;3093716;28;115726;-60